createdAt,value
2023-05-06T00:00:13.542Z,31.52
2023-05-06T00:01:13.528Z,33.44
2023-05-06T00:02:13.586Z,33.04
2023-05-06T00:03:13.861Z,28.55
2023-05-06T00:04:13.605Z,31.15
2023-05-06T00:05:13.608Z,30.55
2023-05-06T00:06:13.604Z,29.74
2023-05-06T00:07:13.599Z,28.06
2023-05-06T00:08:13.810Z,29.97
2023-05-06T00:09:13.646Z,28.95
2023-05-06T00:10:13.642Z,30.59
2023-05-06T00:11:13.760Z,29.58
2023-05-06T00:12:13.638Z,31.19
2023-05-06T00:13:13.744Z,32.53
2023-05-06T00:14:13.653Z,31.85
2023-05-06T00:15:13.652Z,29.59
2023-05-06T00:16:13.734Z,31.55
2023-05-06T00:17:13.687Z,30.09
2023-05-06T00:18:13.695Z,31.99
2023-05-06T00:19:13.708Z,31.47
2023-05-06T00:20:13.726Z,31.22
2023-05-06T00:21:13.757Z,27.55
2023-05-06T00:22:13.771Z,29.74
2023-05-06T00:23:13.851Z,29.55
2023-05-06T00:24:13.778Z,27.83
2023-05-06T00:25:13.756Z,29.41
2023-05-06T00:26:13.794Z,28.71
2023-05-06T00:27:13.849Z,28.62
2023-05-06T00:28:13.815Z,29.91
2023-05-06T00:29:13.801Z,26.64
2023-05-06T00:30:13.813Z,28.42
2023-05-06T00:31:13.895Z,27.53
2023-05-06T00:32:13.919Z,27.68
2023-05-06T00:33:13.906Z,27.32
2023-05-06T00:34:13.927Z,28.11
2023-05-06T00:35:13.869Z,29.54
2023-05-06T00:36:13.944Z,31.80
2023-05-06T00:37:13.930Z,29.92
2023-05-06T00:38:13.944Z,30.56
2023-05-06T00:39:13.962Z,27.44
2023-05-06T00:40:14.016Z,30.67
2023-05-06T00:41:14.050Z,29.08
2023-05-06T00:42:14.087Z,30.39
2023-05-06T00:43:14.113Z,29.25
2023-05-06T00:44:14.037Z,29.62
2023-05-06T00:45:14.055Z,32.49
2023-05-06T00:46:14.140Z,30.35
2023-05-06T00:47:14.119Z,29.39
2023-05-06T00:48:14.133Z,27.15
2023-05-06T00:49:14.135Z,29.65
2023-05-06T00:50:14.098Z,26.34
2023-05-06T00:51:14.177Z,27.90
2023-05-06T00:52:14.131Z,27.74
2023-05-06T00:53:14.166Z,28.77
2023-05-06T00:54:14.169Z,30.29
2023-05-06T00:55:14.217Z,27.83
2023-05-06T00:56:14.163Z,29.80
2023-05-06T00:57:14.211Z,29.61
2023-05-06T00:58:14.196Z,26.73
2023-05-06T00:59:14.290Z,26.69
2023-05-06T01:00:14.226Z,28.61
2023-05-06T01:01:14.340Z,27.52
2023-05-06T01:02:14.332Z,27.10
2023-05-06T01:03:14.364Z,29.27
2023-05-06T01:04:14.327Z,27.59
2023-05-06T01:05:14.377Z,27.94
2023-05-06T01:06:14.337Z,28.11
2023-05-06T01:07:14.406Z,25.00
2023-05-06T01:08:14.373Z,27.59
2023-05-06T01:09:14.407Z,30.17
2023-05-06T01:10:14.433Z,28.42
2023-05-06T01:11:15.801Z,27.30
2023-05-06T01:12:14.463Z,27.82
2023-05-06T01:13:15.039Z,27.18
2023-05-06T01:14:14.462Z,29.92
2023-05-06T01:15:14.547Z,28.41
2023-05-06T01:16:14.529Z,28.58
2023-05-06T01:17:14.648Z,29.61
2023-05-06T01:18:14.568Z,32.95
2023-05-06T01:19:14.563Z,31.43
2023-05-06T01:20:14.584Z,32.45
2023-05-06T01:21:15.379Z,32.75
2023-05-06T01:22:14.632Z,35.23
2023-05-06T01:23:14.687Z,29.38
2023-05-06T01:24:14.668Z,31.46
2023-05-06T01:25:14.721Z,32.81
2023-05-06T01:26:14.718Z,33.68
2023-05-06T01:27:14.751Z,31.29
2023-05-06T01:28:14.881Z,30.19
2023-05-06T01:29:14.837Z,32.49
2023-05-06T01:30:14.831Z,36.18
2023-05-06T01:31:14.981Z,31.68
2023-05-06T01:32:14.891Z,34.09
2023-05-06T01:33:14.957Z,32.90
2023-05-06T01:34:14.944Z,30.25
2023-05-06T01:35:14.959Z,31.42
2023-05-06T01:36:14.954Z,30.96
2023-05-06T01:37:15.002Z,32.06
2023-05-06T01:38:15.398Z,33.71
2023-05-06T01:39:15.077Z,29.78
2023-05-06T01:40:15.050Z,29.50
2023-05-06T01:41:15.064Z,32.06
2023-05-06T01:42:15.120Z,32.64
2023-05-06T01:43:15.155Z,31.36
2023-05-06T01:44:15.140Z,32.32
2023-05-06T01:45:15.198Z,32.07
2023-05-06T01:46:15.217Z,32.71
2023-05-06T01:47:15.312Z,32.72
2023-05-06T01:48:15.287Z,33.07
2023-05-06T01:49:15.266Z,33.50
2023-05-06T01:50:15.289Z,32.80
2023-05-06T01:51:15.329Z,34.18
2023-05-06T01:52:15.376Z,33.50
2023-05-06T01:53:15.398Z,32.08
2023-05-06T01:54:15.413Z,29.31
2023-05-06T01:55:15.456Z,30.96
2023-05-06T01:56:15.509Z,31.75
2023-05-06T01:57:15.536Z,29.45
2023-05-06T01:58:15.575Z,34.37
2023-05-06T01:59:15.700Z,33.21
2023-05-06T02:00:15.612Z,27.83
2023-05-06T02:01:15.686Z,31.26
2023-05-06T02:02:15.703Z,32.37
2023-05-06T02:03:15.874Z,30.85
2023-05-06T02:04:15.730Z,31.63
2023-05-06T02:05:15.777Z,32.16
2023-05-06T02:06:15.790Z,29.09
2023-05-06T02:07:15.771Z,30.13
2023-05-06T02:08:15.811Z,31.98
2023-05-06T02:09:15.862Z,30.26
2023-05-06T02:10:15.869Z,30.36
2023-05-06T02:11:15.935Z,32.69
2023-05-06T02:12:15.926Z,31.95
2023-05-06T02:13:16.078Z,31.64
2023-05-06T02:14:15.975Z,31.88
2023-05-06T02:15:16.061Z,29.67
2023-05-06T02:16:16.096Z,28.93
2023-05-06T02:17:16.085Z,30.92
2023-05-06T02:18:16.156Z,31.46
2023-05-06T02:19:16.237Z,30.91
2023-05-06T02:20:16.218Z,27.72
2023-05-06T02:21:16.242Z,31.35
2023-05-06T02:22:16.262Z,28.81
2023-05-06T02:23:16.265Z,30.77
2023-05-06T02:24:16.324Z,30.31
2023-05-06T02:25:16.343Z,30.26
2023-05-06T02:26:16.372Z,28.92
2023-05-06T02:27:16.431Z,29.68
2023-05-06T02:28:16.471Z,29.99
2023-05-06T02:29:16.484Z,31.73
2023-05-06T02:30:16.499Z,30.19
2023-05-06T02:31:16.587Z,26.81
2023-05-06T02:32:16.589Z,27.74
2023-05-06T02:33:16.896Z,29.08
2023-05-06T02:34:16.618Z,28.20
2023-05-06T02:35:16.756Z,28.15
2023-05-06T02:36:16.687Z,28.83
2023-05-06T02:37:16.719Z,29.36
2023-05-06T02:38:16.760Z,27.88
2023-05-06T02:39:16.774Z,29.09
2023-05-06T02:40:16.855Z,26.80
2023-05-06T02:41:16.870Z,29.90
2023-05-06T02:42:16.933Z,30.21
2023-05-06T02:43:16.928Z,28.46
2023-05-06T02:44:16.974Z,29.32
2023-05-06T02:45:16.984Z,29.02
2023-05-06T02:46:17.122Z,29.86
2023-05-06T02:47:17.025Z,29.60
2023-05-06T02:48:17.420Z,28.43
2023-05-06T02:49:17.101Z,26.43
2023-05-06T02:50:17.174Z,27.87
2023-05-06T02:51:17.258Z,28.19
2023-05-06T02:52:17.237Z,29.45
2023-05-06T02:53:17.320Z,28.48
2023-05-06T02:54:17.269Z,26.48
2023-05-06T02:55:17.353Z,29.69
2023-05-06T02:56:17.401Z,27.39
2023-05-06T02:57:17.416Z,26.67
2023-05-06T02:58:17.952Z,27.00
2023-05-06T02:59:17.450Z,27.83
2023-05-06T03:00:17.501Z,30.45
2023-05-06T03:01:17.562Z,31.50
2023-05-06T03:02:17.582Z,27.74
2023-05-06T03:03:17.633Z,29.66
2023-05-06T03:04:17.655Z,27.05
2023-05-06T03:05:17.675Z,28.69
2023-05-06T03:06:17.710Z,29.59
2023-05-06T03:07:17.753Z,27.61
2023-05-06T03:08:17.805Z,27.41
2023-05-06T03:09:17.826Z,31.03
2023-05-06T03:10:17.890Z,26.86
2023-05-06T03:11:17.925Z,27.97
2023-05-06T03:12:17.956Z,26.48
2023-05-06T03:13:18.003Z,28.58
2023-05-06T03:14:18.018Z,29.10
2023-05-06T03:15:18.078Z,29.05
2023-05-06T03:16:18.173Z,27.45
2023-05-06T03:17:18.137Z,26.77
2023-05-06T03:18:18.187Z,28.47
2023-05-06T03:19:18.226Z,28.12
2023-05-06T03:20:18.269Z,29.26
2023-05-06T03:21:18.387Z,27.51
2023-05-06T03:22:18.385Z,29.37
2023-05-06T03:23:18.445Z,27.42
2023-05-06T03:24:18.425Z,25.99
2023-05-06T03:25:18.445Z,28.29
2023-05-06T03:26:18.475Z,29.03
2023-05-06T03:27:18.532Z,26.30
2023-05-06T03:28:18.635Z,28.56
2023-05-06T03:29:18.682Z,26.12
2023-05-06T03:30:18.685Z,27.20
2023-05-06T03:31:18.785Z,27.16
2023-05-06T03:32:18.748Z,29.34
2023-05-06T03:33:18.815Z,28.99
2023-05-06T03:34:18.872Z,29.27
2023-05-06T03:35:18.927Z,26.25
2023-05-06T03:36:18.954Z,28.62
2023-05-06T03:37:19.018Z,27.22
2023-05-06T03:38:19.055Z,26.22
2023-05-06T03:39:19.157Z,27.26
2023-05-06T03:40:19.128Z,30.14
2023-05-06T03:41:19.157Z,29.20
2023-05-06T03:42:19.202Z,28.91
2023-05-06T03:43:19.227Z,28.78
2023-05-06T03:44:19.284Z,28.03
2023-05-06T03:45:19.303Z,27.36
2023-05-06T03:46:19.471Z,29.47
2023-05-06T03:47:19.443Z,31.85
2023-05-06T03:48:19.911Z,30.08
2023-05-06T03:49:19.501Z,31.13
2023-05-06T03:50:19.507Z,28.87
2023-05-06T03:51:19.570Z,29.90
2023-05-06T03:52:19.602Z,31.81
2023-05-06T03:53:19.672Z,28.48
2023-05-06T03:54:19.728Z,31.25
2023-05-06T03:55:19.738Z,27.88
2023-05-06T03:56:19.790Z,29.67
2023-05-06T03:57:19.803Z,32.51
2023-05-06T03:58:19.856Z,30.42
2023-05-06T03:59:19.886Z,30.03
2023-05-06T04:00:19.921Z,29.38
2023-05-06T04:01:19.980Z,31.66
2023-05-06T04:02:20.030Z,30.65
2023-05-06T04:03:20.138Z,30.02
2023-05-06T04:04:20.099Z,29.55
2023-05-06T04:05:20.160Z,30.81
2023-05-06T04:06:20.161Z,29.48
2023-05-06T04:07:20.185Z,30.51
2023-05-06T04:08:20.447Z,30.18
2023-05-06T04:09:20.290Z,27.56
2023-05-06T04:10:20.329Z,30.82
2023-05-06T04:11:20.417Z,29.44
2023-05-06T04:12:20.417Z,29.64
2023-05-06T04:13:20.620Z,27.30
2023-05-06T04:14:20.544Z,31.45
2023-05-06T04:15:20.605Z,31.72
2023-05-06T04:16:20.650Z,27.38
2023-05-06T04:17:20.672Z,28.11
2023-05-06T04:18:20.689Z,26.85
2023-05-06T04:19:20.711Z,27.41
2023-05-06T04:20:20.768Z,28.96
2023-05-06T04:21:20.773Z,29.41
2023-05-06T04:22:20.843Z,28.55
2023-05-06T04:23:20.894Z,27.37
2023-05-06T04:24:20.960Z,29.28
2023-05-06T04:25:20.962Z,26.48
2023-05-06T04:26:21.039Z,28.40
2023-05-06T04:27:21.104Z,29.38
2023-05-06T04:28:21.100Z,26.72
2023-05-06T04:29:21.138Z,27.38
2023-05-06T04:30:21.211Z,25.59
2023-05-06T04:31:21.260Z,26.31
2023-05-06T04:32:21.303Z,25.00
2023-05-06T04:33:21.310Z,29.35
2023-05-06T04:34:21.390Z,28.37
2023-05-06T04:35:21.413Z,27.38
2023-05-06T04:36:21.460Z,28.25
2023-05-06T04:37:21.505Z,28.51
2023-05-06T04:38:21.550Z,26.84
2023-05-06T04:39:21.581Z,25.00
2023-05-06T04:40:21.624Z,29.76
2023-05-06T04:41:21.717Z,26.62
2023-05-06T04:42:21.721Z,30.35
2023-05-06T04:43:21.804Z,30.95
2023-05-06T04:44:21.800Z,31.40
2023-05-06T04:45:21.825Z,27.26
2023-05-06T04:46:21.909Z,28.83
2023-05-06T04:47:22.013Z,28.87
2023-05-06T04:48:22.017Z,28.50
2023-05-06T04:49:22.017Z,30.72
2023-05-06T04:50:22.053Z,28.63
2023-05-06T04:51:22.114Z,27.94
2023-05-06T04:52:22.178Z,28.82
2023-05-06T04:53:22.231Z,32.18
2023-05-06T04:54:22.284Z,27.51
2023-05-06T04:55:22.313Z,30.07
2023-05-06T04:56:22.348Z,27.28
2023-05-06T04:57:22.414Z,28.81
2023-05-06T04:58:22.448Z,28.48
2023-05-06T04:59:22.540Z,28.81
2023-05-06T05:00:22.549Z,28.32
2023-05-06T05:01:22.619Z,28.05
2023-05-06T05:02:22.758Z,29.97
2023-05-06T05:03:22.776Z,29.18
2023-05-06T05:04:22.712Z,30.46
2023-05-06T05:05:22.724Z,30.28
2023-05-06T05:06:22.760Z,28.82
2023-05-06T05:07:22.818Z,28.35
2023-05-06T05:08:22.874Z,28.52
2023-05-06T05:09:22.934Z,29.71
2023-05-06T05:10:22.930Z,27.99
2023-05-06T05:11:23.008Z,29.15
2023-05-06T05:12:23.016Z,29.75
2023-05-06T05:13:23.082Z,30.55
2023-05-06T05:14:23.135Z,29.37
2023-05-06T05:15:23.352Z,29.45
2023-05-06T05:16:23.205Z,28.15
2023-05-06T05:17:23.256Z,27.19
2023-05-06T05:18:23.283Z,29.56
2023-05-06T05:19:23.332Z,29.15
2023-05-06T05:20:23.371Z,30.47
2023-05-06T05:21:23.412Z,27.84
2023-05-06T05:22:23.451Z,25.00
2023-05-06T05:23:23.530Z,27.24
2023-05-06T05:24:23.556Z,28.92
2023-05-06T05:25:24.464Z,30.20
2023-05-06T05:26:23.700Z,30.48
2023-05-06T05:27:23.724Z,25.92
2023-05-06T05:28:24.000Z,27.54
2023-05-06T05:29:23.780Z,26.00
2023-05-06T05:30:23.844Z,29.51
2023-05-06T05:31:24.083Z,29.84
2023-05-06T05:32:24.043Z,28.87
2023-05-06T05:33:24.048Z,28.43
2023-05-06T05:34:24.036Z,25.83
2023-05-06T05:35:24.102Z,25.99
2023-05-06T05:36:24.134Z,29.97
2023-05-06T05:37:24.188Z,28.83
2023-05-06T05:38:24.247Z,27.39
2023-05-06T05:39:24.301Z,29.37
2023-05-06T05:40:24.368Z,27.29
2023-05-06T05:41:24.372Z,28.10
2023-05-06T05:42:24.417Z,28.30
2023-05-06T05:43:24.489Z,29.11
2023-05-06T05:44:24.551Z,28.47
2023-05-06T05:45:24.562Z,29.43
2023-05-06T05:46:24.668Z,28.55
2023-05-06T05:47:24.702Z,28.64
2023-05-06T05:48:24.739Z,29.65
2023-05-06T05:49:24.740Z,27.85
2023-05-06T05:50:24.817Z,29.26
2023-05-06T05:51:24.851Z,29.48
2023-05-06T05:52:24.943Z,29.24
2023-05-06T05:53:24.988Z,27.44
2023-05-06T05:54:24.980Z,28.56
2023-05-06T05:55:25.032Z,29.78
2023-05-06T05:56:25.086Z,27.71
2023-05-06T05:57:25.133Z,26.88
2023-05-06T05:58:25.218Z,28.17
2023-05-06T05:59:25.279Z,28.91
2023-05-06T06:00:25.288Z,30.86
2023-05-06T06:01:25.394Z,29.09
2023-05-06T06:02:25.508Z,27.86
2023-05-06T06:03:25.557Z,25.91
2023-05-06T06:04:25.533Z,29.40
2023-05-06T06:05:25.585Z,28.97
2023-05-06T06:06:25.622Z,29.86
2023-05-06T06:07:25.624Z,29.69
2023-05-06T06:08:25.702Z,29.06
2023-05-06T06:09:25.751Z,25.84
2023-05-06T06:10:25.824Z,27.71
2023-05-06T06:11:25.857Z,27.75
2023-05-06T06:12:25.885Z,29.44
2023-05-06T06:13:28.456Z,30.14
2023-05-06T06:14:25.898Z,30.81
2023-05-06T06:15:25.945Z,28.12
2023-05-06T06:16:25.925Z,27.64
2023-05-06T06:17:25.922Z,27.66
2023-05-06T06:18:25.921Z,27.22
2023-05-06T06:19:26.044Z,26.28
2023-05-06T06:20:25.878Z,28.43
2023-05-06T06:21:25.896Z,25.66
2023-05-06T06:22:25.852Z,27.59
2023-05-06T06:23:25.856Z,27.94
2023-05-06T06:24:25.837Z,28.42
2023-05-06T06:25:25.859Z,28.37
2023-05-06T06:26:25.823Z,26.80
2023-05-06T06:27:25.849Z,28.03
2023-05-06T06:28:25.790Z,26.62
2023-05-06T06:29:25.793Z,26.37
2023-05-06T06:30:25.774Z,26.09
2023-05-06T06:31:25.812Z,28.33
2023-05-06T06:32:25.849Z,26.79
2023-05-06T06:33:25.778Z,28.85
2023-05-06T06:34:25.765Z,28.93
2023-05-06T06:35:25.859Z,26.50
2023-05-06T06:36:25.783Z,28.43
2023-05-06T06:37:25.714Z,27.47
2023-05-06T06:38:25.739Z,27.01
2023-05-06T06:39:25.767Z,29.67
2023-05-06T06:40:25.714Z,26.73
2023-05-06T06:41:25.723Z,31.30
2023-05-06T06:42:26.954Z,27.81
2023-05-06T06:43:25.682Z,26.54
2023-05-06T06:44:25.750Z,29.31
2023-05-06T06:45:25.683Z,28.93
2023-05-06T06:46:25.752Z,31.30
2023-05-06T06:47:25.738Z,29.80
2023-05-06T06:48:25.676Z,32.61
2023-05-06T06:49:25.690Z,30.63
2023-05-06T06:50:25.633Z,28.12
2023-05-06T06:51:25.752Z,29.36
2023-05-06T06:52:25.634Z,29.23
2023-05-06T06:53:25.651Z,28.60
2023-05-06T06:54:25.613Z,28.42
2023-05-06T06:55:25.617Z,30.71
2023-05-06T06:56:25.669Z,30.20
2023-05-06T06:57:25.696Z,28.97
2023-05-06T06:58:25.707Z,27.13
2023-05-06T06:59:25.761Z,28.84
2023-05-06T07:00:25.874Z,28.30
2023-05-06T07:01:25.918Z,30.68
2023-05-06T07:02:25.991Z,29.58
2023-05-06T07:03:25.985Z,30.22
2023-05-06T07:04:26.093Z,27.79
2023-05-06T07:05:26.084Z,28.26
2023-05-06T07:06:26.149Z,30.68
2023-05-06T07:07:26.256Z,29.11
2023-05-06T07:08:26.275Z,27.87
2023-05-06T07:09:26.283Z,29.61
2023-05-06T07:10:26.477Z,25.57
2023-05-06T07:11:26.373Z,25.62
2023-05-06T07:12:26.407Z,26.87
2023-05-06T07:13:26.501Z,29.18
2023-05-06T07:14:26.499Z,26.72
2023-05-06T07:15:26.575Z,28.13
2023-05-06T07:16:26.647Z,26.71
2023-05-06T07:17:26.708Z,28.75
2023-05-06T07:18:26.714Z,27.53
2023-05-06T07:19:26.805Z,27.45
2023-05-06T07:20:26.758Z,30.27
2023-05-06T07:21:26.856Z,28.37
2023-05-06T07:22:26.877Z,31.48
2023-05-06T07:23:27.009Z,28.50
2023-05-06T07:24:26.984Z,30.26
2023-05-06T07:25:27.009Z,30.15
2023-05-06T07:26:27.077Z,30.62
2023-05-06T07:27:27.123Z,27.70
2023-05-06T07:28:27.214Z,27.15
2023-05-06T07:29:27.211Z,27.71
2023-05-06T07:30:27.336Z,28.32
2023-05-06T07:31:27.413Z,28.33
2023-05-06T07:32:27.460Z,28.75
2023-05-06T07:33:27.416Z,26.58
2023-05-06T07:34:27.450Z,27.99
2023-05-06T07:35:27.496Z,25.81
2023-05-06T07:36:27.558Z,25.41
2023-05-06T07:37:27.631Z,29.08
2023-05-06T07:38:27.659Z,30.98
2023-05-06T07:39:27.708Z,26.60
2023-05-06T07:40:27.716Z,29.09
2023-05-06T07:41:27.791Z,31.10
2023-05-06T07:42:27.982Z,30.00
2023-05-06T07:43:27.910Z,31.03
2023-05-06T07:44:27.902Z,30.61
2023-05-06T07:45:27.970Z,28.04
2023-05-06T07:46:28.017Z,29.28
2023-05-06T07:47:28.112Z,31.20
2023-05-06T07:48:28.151Z,30.59
2023-05-06T07:49:28.091Z,31.79
2023-05-06T07:50:28.151Z,31.64
2023-05-06T07:51:28.194Z,29.98
2023-05-06T07:52:28.946Z,29.53
2023-05-06T07:53:28.273Z,31.88
2023-05-06T07:54:28.328Z,34.52
2023-05-06T07:55:28.436Z,33.62
2023-05-06T07:56:28.394Z,33.97
2023-05-06T07:57:28.439Z,34.21
2023-05-06T07:58:28.508Z,34.61
2023-05-06T07:59:28.528Z,33.59
2023-05-06T08:00:28.527Z,37.77
2023-05-06T08:01:28.597Z,35.30
2023-05-06T08:02:28.733Z,36.11
2023-05-06T08:03:28.853Z,36.53
2023-05-06T08:04:28.700Z,35.50
2023-05-06T08:05:28.724Z,33.52
2023-05-06T08:06:28.758Z,36.74
2023-05-06T08:07:28.803Z,35.39
2023-05-06T08:08:28.837Z,36.49
2023-05-06T08:09:28.903Z,36.45
2023-05-06T08:10:28.945Z,36.30
2023-05-06T08:11:29.015Z,39.95
2023-05-06T08:12:28.985Z,37.56
2023-05-06T08:13:29.026Z,37.68
2023-05-06T08:14:29.089Z,35.48
2023-05-06T08:15:29.135Z,38.12
2023-05-06T08:16:29.194Z,38.48
2023-05-06T08:17:29.248Z,37.38
2023-05-06T08:18:29.277Z,37.95
2023-05-06T08:19:29.277Z,37.19
2023-05-06T08:20:29.287Z,36.83
2023-05-06T08:21:29.322Z,38.77
2023-05-06T08:22:29.345Z,39.41
2023-05-06T08:23:29.433Z,38.47
2023-05-06T08:24:29.448Z,38.64
2023-05-06T08:25:29.523Z,38.24
2023-05-06T08:26:29.526Z,37.80
2023-05-06T08:27:29.730Z,38.88
2023-05-06T08:28:29.673Z,37.21
2023-05-06T08:29:29.698Z,36.52
2023-05-06T08:30:29.702Z,39.79
2023-05-06T08:31:29.736Z,36.34
2023-05-06T08:32:29.816Z,41.00
2023-05-06T08:33:29.811Z,40.46
2023-05-06T08:34:29.846Z,37.32
2023-05-06T08:35:29.910Z,40.15
2023-05-06T08:36:29.909Z,38.37
2023-05-06T08:37:29.954Z,40.73
2023-05-06T08:38:30.041Z,39.63
2023-05-06T08:39:30.053Z,41.35
2023-05-06T08:40:30.076Z,39.12
2023-05-06T08:41:30.152Z,40.23
2023-05-06T08:42:30.173Z,38.83
2023-05-06T08:43:30.276Z,40.04
2023-05-06T08:44:30.277Z,40.10
2023-05-06T08:45:30.334Z,40.45
2023-05-06T08:46:30.388Z,41.39
2023-05-06T08:47:30.397Z,41.03
2023-05-06T08:48:30.411Z,41.73
2023-05-06T08:49:30.449Z,40.01
2023-05-06T08:50:30.461Z,41.20
2023-05-06T08:51:30.510Z,40.05
2023-05-06T08:52:30.531Z,39.15
2023-05-06T08:53:30.555Z,41.50
2023-05-06T08:54:30.636Z,39.50
2023-05-06T08:55:30.642Z,41.32
2023-05-06T08:56:30.638Z,39.04
2023-05-06T08:57:30.682Z,40.25
2023-05-06T08:58:30.725Z,39.17
2023-05-06T08:59:30.769Z,38.17
2023-05-06T09:00:30.757Z,39.02
2023-05-06T09:01:30.858Z,41.59
2023-05-06T09:02:30.929Z,41.25
2023-05-06T09:03:31.155Z,43.05
2023-05-06T09:04:30.900Z,42.26
2023-05-06T09:05:30.973Z,40.41
2023-05-06T09:06:30.991Z,38.71
2023-05-06T09:07:31.010Z,39.89
2023-05-06T09:08:31.076Z,39.27
2023-05-06T09:09:31.116Z,39.82
2023-05-06T09:10:31.155Z,40.11
2023-05-06T09:11:31.165Z,42.61
2023-05-06T09:12:31.186Z,41.47
2023-05-06T09:13:31.242Z,39.00
2023-05-06T09:14:31.235Z,39.76
2023-05-06T09:15:31.344Z,39.73
2023-05-06T09:16:31.391Z,42.17
2023-05-06T09:17:31.391Z,40.54
2023-05-06T09:18:31.374Z,38.22
2023-05-06T09:19:31.417Z,43.74
2023-05-06T09:20:31.432Z,42.60
2023-05-06T09:21:31.479Z,40.45
2023-05-06T09:22:31.492Z,40.93
2023-05-06T09:23:31.538Z,40.67
2023-05-06T09:24:31.551Z,40.52
2023-05-06T09:25:31.631Z,42.66
2023-05-06T09:26:31.605Z,41.54
2023-05-06T09:27:31.617Z,38.50
2023-05-06T09:28:31.693Z,37.89
2023-05-06T09:29:31.739Z,39.84
2023-05-06T09:30:31.766Z,40.68
2023-05-06T09:31:32.038Z,42.13
2023-05-06T09:32:31.882Z,40.22
2023-05-06T09:33:31.873Z,42.04
2023-05-06T09:34:31.953Z,40.91
2023-05-06T09:35:31.966Z,37.71
2023-05-06T09:36:31.985Z,38.62
2023-05-06T09:37:32.018Z,37.11
2023-05-06T09:38:32.064Z,38.73
2023-05-06T09:39:32.101Z,40.45
2023-05-06T09:40:32.144Z,38.45
2023-05-06T09:41:32.178Z,40.43
2023-05-06T09:42:32.196Z,40.19
2023-05-06T09:43:32.223Z,41.68
2023-05-06T09:44:32.277Z,41.05
2023-05-06T09:45:32.277Z,37.52
2023-05-06T09:46:32.383Z,37.20
2023-05-06T09:47:32.450Z,39.22
2023-05-06T09:48:32.370Z,40.24
2023-05-06T09:49:32.410Z,40.99
2023-05-06T09:50:32.473Z,37.27
2023-05-06T09:51:32.494Z,37.72
2023-05-06T09:52:32.519Z,38.27
2023-05-06T09:53:32.560Z,40.21
2023-05-06T09:54:32.638Z,36.73
2023-05-06T09:55:32.628Z,40.36
2023-05-06T09:56:32.660Z,38.86
2023-05-06T09:57:32.681Z,39.42
2023-05-06T09:58:32.755Z,36.53
2023-05-06T09:59:32.764Z,40.59
2023-05-06T10:00:32.813Z,41.23
2023-05-06T10:01:36.698Z,36.61
2023-05-06T10:02:32.934Z,36.88
2023-05-06T10:03:33.060Z,36.69
2023-05-06T10:04:32.899Z,37.54
2023-05-06T10:05:32.888Z,39.47
2023-05-06T10:06:32.814Z,39.31
2023-05-06T10:07:32.830Z,37.00
2023-05-06T10:08:32.828Z,37.67
2023-05-06T10:09:32.790Z,35.38
2023-05-06T10:10:32.784Z,36.68
2023-05-06T10:11:32.762Z,37.38
2023-05-06T10:12:32.836Z,35.15
2023-05-06T10:13:32.753Z,39.42
2023-05-06T10:14:32.752Z,38.40
2023-05-06T10:15:32.771Z,35.75
2023-05-06T10:16:32.785Z,35.06
2023-05-06T10:17:32.792Z,38.57
2023-05-06T10:18:32.704Z,37.74
2023-05-06T10:19:32.734Z,35.62
2023-05-06T10:20:32.750Z,35.75
2023-05-06T10:21:32.703Z,37.64
2023-05-06T10:22:32.716Z,35.27
2023-05-06T10:23:32.725Z,37.50
2023-05-06T10:24:32.679Z,36.69
2023-05-06T10:25:32.685Z,38.90
2023-05-06T10:26:32.718Z,37.86
2023-05-06T10:27:32.753Z,34.54
2023-05-06T10:28:32.803Z,38.38
2023-05-06T10:29:32.822Z,37.04
2023-05-06T10:30:32.836Z,39.77
2023-05-06T10:31:32.921Z,35.96
2023-05-06T10:32:32.982Z,36.86
2023-05-06T10:33:32.922Z,37.37
2023-05-06T10:34:33.002Z,36.96
2023-05-06T10:35:33.049Z,37.65
2023-05-06T10:36:33.005Z,37.73
2023-05-06T10:37:33.009Z,37.72
2023-05-06T10:38:33.065Z,37.83
2023-05-06T10:39:33.067Z,34.13
2023-05-06T10:40:33.099Z,36.68
2023-05-06T10:41:33.131Z,37.38
2023-05-06T10:42:33.152Z,36.76
2023-05-06T10:43:33.178Z,39.12
2023-05-06T10:44:33.178Z,35.47
2023-05-06T10:45:33.378Z,38.09
2023-05-06T10:46:33.229Z,37.98
2023-05-06T10:47:33.291Z,37.71
2023-05-06T10:48:33.581Z,36.20
2023-05-06T10:49:33.334Z,34.87
2023-05-06T10:50:33.353Z,37.40
2023-05-06T10:51:33.410Z,36.07
2023-05-06T10:52:33.403Z,36.26
2023-05-06T10:53:33.467Z,34.66
2023-05-06T10:54:33.478Z,38.60
2023-05-06T10:55:33.521Z,37.01
2023-05-06T10:56:33.535Z,35.20
2023-05-06T10:57:33.522Z,39.04
2023-05-06T10:58:33.572Z,34.91
2023-05-06T10:59:33.622Z,35.08
2023-05-06T11:00:33.619Z,36.18
2023-05-06T11:01:33.796Z,36.00
2023-05-06T11:02:33.764Z,36.62
2023-05-06T11:03:33.830Z,34.62
2023-05-06T11:04:33.723Z,36.72
2023-05-06T11:05:33.736Z,37.33
2023-05-06T11:06:33.760Z,35.25
2023-05-06T11:07:33.823Z,36.46
2023-05-06T11:08:33.819Z,35.32
2023-05-06T11:09:33.818Z,33.82
2023-05-06T11:10:33.853Z,38.04
2023-05-06T11:11:33.874Z,39.59
2023-05-06T11:12:33.938Z,35.99
2023-05-06T11:13:33.962Z,36.86
2023-05-06T11:14:33.955Z,35.59
2023-05-06T11:15:33.971Z,36.10
2023-05-06T11:16:34.028Z,32.62
2023-05-06T11:17:34.078Z,35.35
2023-05-06T11:18:34.124Z,37.10
2023-05-06T11:19:34.097Z,36.82
2023-05-06T11:20:34.111Z,36.65
2023-05-06T11:21:34.162Z,38.93
2023-05-06T11:22:34.161Z,37.63
2023-05-06T11:23:34.194Z,34.85
2023-05-06T11:24:34.190Z,36.41
2023-05-06T11:25:34.238Z,33.89
2023-05-06T11:26:34.281Z,35.40
2023-05-06T11:27:34.320Z,39.23
2023-05-06T11:28:34.633Z,35.14
2023-05-06T11:29:34.336Z,37.94
2023-05-06T11:30:34.375Z,36.72
2023-05-06T11:31:34.514Z,37.06
2023-05-06T11:32:34.414Z,33.45
2023-05-06T11:33:34.429Z,35.89
2023-05-06T11:34:34.448Z,36.25
2023-05-06T11:35:34.478Z,35.52
2023-05-06T11:36:34.541Z,35.78
2023-05-06T11:37:34.566Z,36.62
2023-05-06T11:38:34.543Z,33.84
2023-05-06T11:39:39.982Z,36.17
2023-05-06T11:40:35.587Z,36.23
2023-05-06T11:41:34.570Z,36.41
2023-05-06T11:42:34.532Z,36.86
2023-05-06T11:43:34.578Z,37.82
2023-05-06T11:44:34.544Z,37.43
2023-05-06T11:45:34.525Z,37.20
2023-05-06T11:46:34.597Z,35.49
2023-05-06T11:47:34.544Z,36.93
2023-05-06T11:48:34.510Z,37.14
2023-05-06T11:49:36.238Z,36.68
2023-05-06T11:50:34.498Z,36.12
2023-05-06T11:51:34.489Z,37.65
2023-05-06T11:52:34.522Z,34.64
2023-05-06T11:53:34.471Z,35.37
2023-05-06T11:54:34.561Z,35.56
2023-05-06T11:55:34.547Z,38.17
2023-05-06T11:56:34.524Z,34.08
2023-05-06T11:57:34.531Z,36.66
2023-05-06T11:58:34.523Z,35.05
2023-05-06T11:59:34.558Z,37.02
2023-05-06T12:00:34.589Z,34.99
2023-05-06T12:01:34.596Z,35.10
2023-05-06T12:02:34.742Z,39.09
2023-05-06T12:03:34.806Z,37.17
2023-05-06T12:04:34.669Z,37.71
2023-05-06T12:05:34.708Z,40.36
2023-05-06T12:06:34.732Z,35.45
2023-05-06T12:07:34.764Z,36.38
2023-05-06T12:08:34.815Z,36.03
2023-05-06T12:09:34.759Z,37.86
2023-05-06T12:10:34.798Z,36.70
2023-05-06T12:11:34.865Z,37.42
2023-05-06T12:12:34.885Z,36.74
2023-05-06T12:13:34.846Z,36.53
2023-05-06T12:14:34.857Z,36.50
2023-05-06T12:15:34.871Z,35.92
2023-05-06T12:16:34.927Z,36.01
2023-05-06T12:17:34.925Z,36.79
2023-05-06T12:18:34.892Z,39.36
2023-05-06T12:19:34.952Z,37.81
2023-05-06T12:20:34.944Z,37.72
2023-05-06T12:21:34.996Z,38.95
2023-05-06T12:22:34.985Z,39.14
2023-05-06T12:23:35.031Z,37.19
2023-05-06T12:24:35.139Z,38.38
2023-05-06T12:25:35.008Z,38.96
2023-05-06T12:26:35.016Z,41.59
2023-05-06T12:27:35.049Z,39.95
2023-05-06T12:28:35.104Z,40.62
2023-05-06T12:29:35.106Z,41.73
2023-05-06T12:30:35.101Z,42.69
2023-05-06T12:31:35.173Z,43.85
2023-05-06T12:32:35.212Z,46.90
2023-05-06T12:33:35.143Z,45.11
2023-05-06T12:34:35.702Z,43.54
2023-05-06T12:35:35.164Z,46.46
2023-05-06T12:36:35.198Z,47.13
2023-05-06T12:37:35.168Z,44.72
2023-05-06T12:38:35.214Z,45.98
2023-05-06T12:39:35.230Z,45.66
2023-05-06T12:40:35.232Z,49.84
2023-05-06T12:41:35.229Z,48.67
2023-05-06T12:42:35.238Z,51.29
2023-05-06T12:43:35.298Z,49.92
2023-05-06T12:44:35.264Z,52.26
2023-05-06T12:45:35.277Z,50.63
2023-05-06T12:46:35.221Z,51.31
2023-05-06T12:47:35.309Z,53.28
2023-05-06T12:48:35.301Z,54.69
2023-05-06T12:49:35.299Z,55.26
2023-05-06T12:50:35.258Z,54.04
2023-05-06T12:51:35.264Z,58.09
2023-05-06T12:52:35.319Z,59.97